This is the latest recevied weather packets stored in our database for station/object KC5AV. If no packets are shown the sender has not sent any weather packets the latest 10 day(s).
| Time | Temp. | Humidity | Pressure | Rain* | Wind** | Luminosity | Snow |
|---|---|---|---|---|---|---|---|
| 1778095047 | 18.33° C | 87% | 1012.6 hPa | 0 mm | - | 83 W/m² | - |
| 1778094743 | 18.33° C | 87% | 1012.8 hPa | 0 mm | - | 112 W/m² | - |
| 1778094440 | 18.33° C | 87% | 1012.5 hPa | 0 mm | - | 101 W/m² | - |
| 1778094137 | 18.33° C | 87% | 1012.5 hPa | 0 mm | - | 94 W/m² | - |
| 1778093834 | 18.89° C | 86% | 1012.4 hPa | 0 mm | - | 112 W/m² | - |
| 1778093530 | 18.89° C | 85% | 1012.6 hPa | 0 mm | - | 96 W/m² | - |
| 1778093228 | 19.44° C | 83% | 1013.1 hPa | 0 mm | - | 92 W/m² | - |
| 1778092925 | 19.44° C | 82% | 1013.3 hPa | 0 mm | - | 88 W/m² | - |
| 1778092621 | 20° C | 81% | 1013.4 hPa | 0 mm | - | 132 W/m² | - |
| 1778092317 | 20° C | 80% | 1013.5 hPa | 0 mm | - | 131 W/m² | - |
| 1778092015 | 21.11° C | 79% | 1013.3 hPa | 0 mm | - | 158 W/m² | - |
| 1778091712 | 20.56° C | 80% | 1012.8 hPa | 0 mm | - | 454 W/m² | - |
| 1778091410 | 20° C | 80% | 1012.5 hPa | 0 mm | - | 524 W/m² | - |
| 1778091107 | 20° C | 80% | 1012.9 hPa | 0 mm | - | 415 W/m² | - |
| 1778090804 | 20° C | 81% | 1013 hPa | 0 mm | - | 413 W/m² | - |
| 1778090500 | 19.44° C | 80% | 1013.1 hPa | 0 mm | - | 408 W/m² | - |
| 1778090196 | 20° C | 79% | 1013.6 hPa | 0 mm | - | 290 W/m² | - |
| 1778089893 | 19.44° C | 81% | 1013.6 hPa | 0 mm | - | 340 W/m² | - |
| 1778089591 | 18.89° C | 81% | 1013.8 hPa | 0 mm | - | 359 W/m² | - |
| 1778089288 | 18.89° C | 82% | 1014.3 hPa | 0 mm | - | 244 W/m² | - |
| 1778088985 | 18.33° C | 81% | 1014.7 hPa | 0 mm | - | 235 W/m² | - |
| 1778088682 | 18.89° C | 81% | 1014.4 hPa | 0 mm | - | 315 W/m² | - |
| 1778088379 | 18.33° C | 84% | 1014.4 hPa | 0 mm | - | 358 W/m² | - |
| 1778088075 | 18.33° C | 83% | 1014.4 hPa | 0 mm | - | 350 W/m² | - |
| 1778087773 | 18.33° C | 82% | 1014.8 hPa | 0 mm | - | 262 W/m² | - |
* Rain latest hour (hover to see other rain measurements)
** Current wind speed in m/s (hover to see current wind gust speed)